Impacts METAR Board
IDs:

KCLT - Charlotte/Douglas In, NC, US

Updated at: 0500 UTC 17 Aug 2018
Potential Impact None Slight Moderate High
Time 16/17Z 16/18Z 16/19Z 16/20Z 16/21Z 16/22Z 16/23Z 17/00Z 17/01Z 17/02Z 17/03Z 17/04Z 17/05Z
Temp90 90 91 91 91 90 89 85 82 81 79 78 77
Dewpt70 71 70 70 70 69 70 72 73 73 74 73 72
Altim30.18 30.17 30.15 30.13 30.12 30.12 30.12 30.14 30.14 30.15 30.17 30.17 30.17
VIS9 9 9 9 9 9 9 9 9 9 9 9 9
CIG-- 250 250 -- -- -- -- -- -- -- -- -- --
CoverSCTBKNBKNFEWFEWFEWFEWFEWSCTSCTFEWFEWFEW
FltCatVFRVFRVFRVFRVFRVFRVFRVFRVFRVFRVFRVFRVFR
WX--------------------------
WDir2802702100210230220210210210190200210
WSpd6 7 8 5 4 3 4 6 4 6 6 4 4
WGst-- -- -- -- -- -- -- -- -- -- -- -- --
Raw hourly METARs
KCLT 161652Z 28006KT 9SM FEW040 FEW100 SCT250 32/21 A3018 RMK AO2 SLP208 T03220211
KCLT 161752Z 27007KT 220V310 9SM SCT046 SCT110 BKN250 32/22 A3017 RMK AO2 SLP205 T03220217 10328 20228 58006
KCLT 161852Z 21008KT 9SM SCT048 SCT110 BKN250 33/21 A3015 RMK AO2 SLP200 T03280211
KCLT 161952Z VRB05KT 9SM FEW046 FEW250 33/21 A3013 RMK AO2 SLP194 CB DSNT SE T03280211
KCLT 162052Z 21004KT 9SM FEW050 FEW250 33/21 A3012 RMK AO2 SLP188 CB DSNT SE AND S T03280211 57016
KCLT 162152Z 23003KT 9SM FEW050 FEW250 32/21 A3012 RMK AO2 SLP188 TCU DSNT SE T03220206
KCLT 162252Z 22004KT 9SM FEW050 FEW250 32/21 A3012 RMK AO2 SLP190 T03170211
KCLT 162352Z 21006KT 9SM FEW046 FEW250 29/22 A3014 RMK AO2 SLP196 TCU DSNT SE T02940222 10333 20294 53006
KCLT 170052Z 21004KT 9SM FEW042 FEW080 SCT250 28/23 A3014 RMK AO2 SLP196 T02780228
KCLT 170152Z 21006KT 9SM FEW050 SCT250 27/23 A3015 RMK AO2 SLP199 T02720228
KCLT 170252Z 19006KT 9SM FEW250 26/23 A3017 RMK AO2 SLP205 T02610233 53009
KCLT 170352Z 20004KT 9SM FEW250 26/23 A3017 RMK AO2 SLP206 T02560228
KCLT 170452Z 21004KT 9SM FEW250 25/22 A3017 RMK AO2 SLP207 T02500222 403330211



Page loaded:  05:25 UTC  |   10:25 PM Pacific  |   11:25 PM Mountain  |   12:25 AM Central  |   01:25 AM Eastern

 

ADVISORIES

FORECASTS

FORECASTS

OBSERVATIONS

USER TOOLS

ABOUT US